createdAt,value
2022-08-02T00:00:44.296Z,72.62
2022-08-02T00:03:47.354Z,73.40
2022-08-02T00:06:50.121Z,74.30
2022-08-02T00:09:53.176Z,75.47
2022-08-02T00:12:55.940Z,75.72
2022-08-02T00:15:59.291Z,77.54
2022-08-02T00:19:01.962Z,76.87
2022-08-02T00:22:05.121Z,76.56
2022-08-02T00:25:08.096Z,76.05
2022-08-02T00:28:13.908Z,75.74
2022-08-02T00:31:17.613Z,75.34
2022-08-02T00:34:28.906Z,76.58
2022-08-02T00:37:32.733Z,77.66
2022-08-02T00:40:35.782Z,78.87
2022-08-02T00:43:38.486Z,77.96
2022-08-02T00:46:42.006Z,78.58
2022-08-02T00:49:44.734Z,76.94
2022-08-02T00:52:47.722Z,76.19
2022-08-02T00:55:50.448Z,76.80
2022-08-02T00:58:53.506Z,76.32
2022-08-02T01:01:58.352Z,76.99
2022-08-02T01:05:03.398Z,76.32
2022-08-02T01:08:07.413Z,76.38
2022-08-02T01:11:10.434Z,76.42
2022-08-02T01:14:15.467Z,76.81
2022-08-02T01:17:44.722Z,76.60
2022-08-02T01:21:04.941Z,76.58
2022-08-02T01:24:23.415Z,76.71
2022-08-02T01:27:55.259Z,78.87
2022-08-02T01:31:16.692Z,78.32
2022-08-02T01:34:47.298Z,77.69
2022-08-02T01:37:57.469Z,77.74
2022-08-02T01:41:03.623Z,77.60
2022-08-02T01:44:09.400Z,79.15
2022-08-02T01:47:18.239Z,78.13
2022-08-02T01:50:27.712Z,78.30
2022-08-02T01:53:31.998Z,78.64
2022-08-02T01:56:36.068Z,78.21
2022-08-02T01:59:41.102Z,78.48
2022-08-02T02:02:47.746Z,78.44
2022-08-02T02:05:52.914Z,78.26
2022-08-02T02:08:58.031Z,77.79
2022-08-02T02:12:06.429Z,77.33
2022-08-02T02:15:16.384Z,78.59
2022-08-02T02:18:24.492Z,79.03
2022-08-02T02:21:27.204Z,78.12
2022-08-02T02:24:30.834Z,77.32
2022-08-02T02:27:37.026Z,78.45
2022-08-02T02:30:46.070Z,78.57
2022-08-02T02:33:59.548Z,78.60
2022-08-02T02:37:05.160Z,78.70
2022-08-02T02:40:09.558Z,78.68
2022-08-02T02:43:14.392Z,78.98
2022-08-02T02:46:19.515Z,78.56
2022-08-02T02:49:24.519Z,78.99
2022-08-02T02:52:27.479Z,79.07
2022-08-02T02:55:32.154Z,79.61
2022-08-02T02:58:35.276Z,79.51
2022-08-02T03:01:56.551Z,78.87
2022-08-02T03:05:05.328Z,78.38
2022-08-02T03:08:08.960Z,77.76
2022-08-02T03:11:12.635Z,78.19
2022-08-02T03:14:16.620Z,77.81
2022-08-02T03:17:19.484Z,78.54
2022-08-02T03:20:25.747Z,78.33
2022-08-02T03:23:28.863Z,78.08
2022-08-02T03:26:31.877Z,78.10
2022-08-02T03:29:34.978Z,77.46
2022-08-02T03:32:40.097Z,78.85
2022-08-02T03:35:44.552Z,79.40
2022-08-02T03:38:48.215Z,80.33
2022-08-02T03:41:51.486Z,80.28
2022-08-02T03:44:55.834Z,80.48
2022-08-02T03:47:59.539Z,80.32
2022-08-02T03:51:03.724Z,81.75
2022-08-02T03:54:06.813Z,81.53
2022-08-02T03:57:10.616Z,81.61
2022-08-02T04:00:19.505Z,81.27
2022-08-02T04:03:22.647Z,81.58
2022-08-02T04:06:27.285Z,82.14
2022-08-02T04:09:31.616Z,81.54
2022-08-02T04:12:34.358Z,82.15
2022-08-02T04:15:38.706Z,82.83
2022-08-02T04:18:50.605Z,82.59
2022-08-02T04:21:55.817Z,82.62
2022-08-02T04:25:02.076Z,82.80
2022-08-02T04:28:17.260Z,82.95
2022-08-02T04:31:22.341Z,82.51
2022-08-02T04:34:25.691Z,81.99
2022-08-02T04:37:28.578Z,81.43
2022-08-02T04:40:31.601Z,81.46
2022-08-02T04:43:34.384Z,81.12
2022-08-02T04:46:38.057Z,80.62
2022-08-02T04:49:40.809Z,81.15
2022-08-02T04:52:45.921Z,80.55
2022-08-02T04:55:48.707Z,80.24
2022-08-02T04:58:51.713Z,81.20
2022-08-02T05:01:54.772Z,81.16
2022-08-02T05:04:57.948Z,80.80
2022-08-02T05:08:00.759Z,80.05
2022-08-02T05:11:03.914Z,79.55
2022-08-02T05:14:06.737Z,79.35
2022-08-02T05:17:09.691Z,79.20
2022-08-02T05:20:15.761Z,78.61
2022-08-02T05:23:18.717Z,77.69
2022-08-02T05:26:21.710Z,76.63
2022-08-02T05:29:24.767Z,74.79
2022-08-02T05:32:27.462Z,72.62
2022-08-02T05:35:30.850Z,71.03
2022-08-02T05:38:37.043Z,70.12
2022-08-02T05:41:40.628Z,69.27
2022-08-02T05:44:43.307Z,69.17
2022-08-02T05:47:46.443Z,68.59
2022-08-02T05:50:53.729Z,66.58
2022-08-02T05:54:10.991Z,65.75
2022-08-02T05:57:35.239Z,63.78
2022-08-02T06:00:50.315Z,62.50
2022-08-02T06:03:56.817Z,62.88
2022-08-02T06:07:07.297Z,62.38
2022-08-02T06:10:14.971Z,61.89
2022-08-02T06:13:17.796Z,60.60
2022-08-02T06:16:32.586Z,58.87
2022-08-02T06:19:51.448Z,59.64
2022-08-02T06:22:58.903Z,60.26
2022-08-02T06:26:03.906Z,60.15
2022-08-02T06:29:07.853Z,60.45
2022-08-02T06:32:11.337Z,59.80
2022-08-02T06:35:14.703Z,59.94
2022-08-02T06:38:27.583Z,59.40
2022-08-02T06:41:42.612Z,58.87
2022-08-02T06:44:51.895Z,57.61
2022-08-02T06:47:58.519Z,56.69
2022-08-02T06:51:05.448Z,54.87
2022-08-02T06:54:08.510Z,53.72
2022-08-02T06:57:11.241Z,52.20
2022-08-02T07:00:14.731Z,52.43
2022-08-02T07:03:18.160Z,53.37
2022-08-02T07:06:21.110Z,52.84
2022-08-02T07:09:23.862Z,52.16
2022-08-02T07:12:27.536Z,50.29
2022-08-02T07:15:30.407Z,51.97
2022-08-02T07:18:35.152Z,49.40
2022-08-02T07:21:57.824Z,48.80
2022-08-02T07:25:00.890Z,48.27
2022-08-02T07:28:04.136Z,47.99
2022-08-02T07:31:07.163Z,48.82
2022-08-02T07:34:09.948Z,47.56
2022-08-02T07:37:34.987Z,47.59
2022-08-02T07:40:37.048Z,45.42
2022-08-02T07:43:40.085Z,46.87
2022-08-02T07:46:42.797Z,45.99
2022-08-02T07:49:45.789Z,46.46
2022-08-02T07:52:49.596Z,45.44
2022-08-02T07:56:00.235Z,43.80
2022-08-02T07:59:03.989Z,43.68
2022-08-02T08:02:07.132Z,43.56
2022-08-02T08:05:10.366Z,41.32
2022-08-02T08:08:17.375Z,41.40
2022-08-02T08:11:20.908Z,42.27
2022-08-02T08:14:23.645Z,41.17
2022-08-02T08:17:27.037Z,38.95
2022-08-02T08:20:29.732Z,38.47
2022-08-02T08:23:32.938Z,37.70
2022-08-02T08:26:35.639Z,37.30
2022-08-02T08:29:38.526Z,38.00
2022-08-02T08:32:41.263Z,37.39
2022-08-02T08:35:44.258Z,36.07
2022-08-02T08:38:48.022Z,36.04
2022-08-02T08:41:51.433Z,36.05
2022-08-02T08:44:57.318Z,36.24
2022-08-02T08:48:06.696Z,34.39
2022-08-02T08:51:16.826Z,35.67
2022-08-02T08:54:24.622Z,36.35
2022-08-02T08:57:30.280Z,36.12
2022-08-02T09:00:35.764Z,34.93
2022-08-02T09:03:38.469Z,34.62
2022-08-02T09:06:41.645Z,35.16
2022-08-02T09:09:44.330Z,34.54
2022-08-02T09:13:37.504Z,33.31
2022-08-02T09:16:40.886Z,34.52
2022-08-02T09:19:45.746Z,34.08
2022-08-02T09:23:09.240Z,33.46
2022-08-02T09:26:14.534Z,33.43
2022-08-02T09:29:18.631Z,33.72
2022-08-02T09:32:24.590Z,33.44
2022-08-02T09:36:05.978Z,33.08
2022-08-02T09:38:58.942Z,31.91
2022-08-02T09:42:10.984Z,31.58
2022-08-02T09:45:14.380Z,31.52
2022-08-02T09:48:17.149Z,31.85
2022-08-02T09:51:29.371Z,31.32
2022-08-02T09:54:33.148Z,30.92
2022-08-02T09:57:38.839Z,29.71
2022-08-02T10:00:56.358Z,29.13
2022-08-02T10:04:01.772Z,28.52
2022-08-02T10:07:05.215Z,29.37
2022-08-02T10:10:08.940Z,27.44
2022-08-02T10:13:11.815Z,30.30
2022-08-02T10:16:24.920Z,31.15
2022-08-02T10:20:03.475Z,32.75
2022-08-02T10:22:51.782Z,31.36
2022-08-02T10:26:00.260Z,29.62
2022-08-02T10:29:03.591Z,28.96
2022-08-02T10:32:11.133Z,29.86
2022-08-02T10:35:26.009Z,28.57
2022-08-02T10:38:29.891Z,26.55
2022-08-02T10:41:51.852Z,25.47
2022-08-02T10:45:10.427Z,26.66
2022-08-02T10:48:14.833Z,26.74
2022-08-02T10:51:17.621Z,26.12
2022-08-02T10:54:32.410Z,27.82
2022-08-02T10:57:38.109Z,29.83
2022-08-02T11:00:41.169Z,29.09
2022-08-02T11:03:45.240Z,28.35
2022-08-02T11:07:14.387Z,28.00
2022-08-02T11:10:39.644Z,27.72
2022-08-02T11:14:02.609Z,29.01
2022-08-02T11:17:17.288Z,27.56
2022-08-02T11:20:22.341Z,28.85
2022-08-02T11:23:44.861Z,27.98
2022-08-02T11:26:51.285Z,26.09
2022-08-02T11:29:53.931Z,25.31
2022-08-02T11:32:58.572Z,24.65
2022-08-02T11:36:03.947Z,24.34
2022-08-02T11:39:15.910Z,23.89
2022-08-02T11:42:18.843Z,24.67
2022-08-02T11:45:29.752Z,24.35
2022-08-02T11:48:32.712Z,24.38
2022-08-02T11:51:35.766Z,23.98
2022-08-02T11:54:40.954Z,23.81
2022-08-02T11:58:04.553Z,24.85
2022-08-02T12:01:06.906Z,24.54
2022-08-02T12:04:10.458Z,25.76
2022-08-02T12:07:14.929Z,27.26
2022-08-02T12:10:24.272Z,26.12
2022-08-02T12:13:26.924Z,26.47
2022-08-02T12:16:55.177Z,26.49
2022-08-02T12:19:59.195Z,27.51
2022-08-02T12:23:05.610Z,29.84
2022-08-02T12:26:15.922Z,27.94
2022-08-02T12:29:55.719Z,27.36
2022-08-02T12:33:12.969Z,27.01
2022-08-02T12:36:24.641Z,26.21
2022-08-02T12:39:43.259Z,25.77
2022-08-02T12:42:51.919Z,25.98
2022-08-02T12:45:58.701Z,25.37
2022-08-02T12:49:17.491Z,25.35
2022-08-02T12:52:22.796Z,24.43
2022-08-02T12:56:01.905Z,24.04
2022-08-02T12:58:52.238Z,24.09
2022-08-02T13:02:02.286Z,22.97
2022-08-02T13:05:05.876Z,23.14
2022-08-02T13:08:08.912Z,21.63
2022-08-02T13:11:11.674Z,21.42
2022-08-02T13:14:16.192Z,21.67
2022-08-02T13:17:19.112Z,22.05
2022-08-02T13:20:22.107Z,21.87
2022-08-02T13:23:54.291Z,23.12
2022-08-02T13:26:50.100Z,23.34
2022-08-02T13:29:54.314Z,24.26
2022-08-02T13:33:00.963Z,24.67
2022-08-02T13:36:05.043Z,24.44
2022-08-02T13:39:12.900Z,25.58
2022-08-02T13:42:16.876Z,26.78
2022-08-02T13:45:20.293Z,28.33
2022-08-02T13:48:26.682Z,27.48
2022-08-02T13:51:29.768Z,27.12
2022-08-02T13:54:32.804Z,26.81
2022-08-02T13:57:35.807Z,26.74
2022-08-02T14:00:38.585Z,26.71
2022-08-02T14:04:08.965Z,26.03
2022-08-02T14:07:06.229Z,26.03
2022-08-02T14:10:09.856Z,25.87
2022-08-02T14:13:12.640Z,26.13
2022-08-02T14:16:15.816Z,25.61
2022-08-02T14:19:18.565Z,25.12
2022-08-02T14:22:22.080Z,24.81
2022-08-02T14:25:26.214Z,24.35
2022-08-02T14:28:30.551Z,24.81
2022-08-02T14:31:33.293Z,25.46
2022-08-02T14:34:36.152Z,25.73
2022-08-02T14:37:38.878Z,26.66
2022-08-02T14:40:42.881Z,27.12
2022-08-02T14:44:04.085Z,26.83
2022-08-02T14:47:07.091Z,26.66
2022-08-02T14:50:11.268Z,27.13
2022-08-02T14:53:14.391Z,27.08
2022-08-02T14:56:17.089Z,26.88
2022-08-02T14:59:22.106Z,27.07
2022-08-02T15:02:26.442Z,27.24
2022-08-02T15:05:29.422Z,27.19
2022-08-02T15:08:32.163Z,27.05
2022-08-02T15:11:48.350Z,27.30
2022-08-02T15:14:52.467Z,27.45
2022-08-02T15:17:56.720Z,27.08
2022-08-02T15:20:59.409Z,26.85
2022-08-02T15:24:02.407Z,26.96
2022-08-02T15:27:05.043Z,27.27
2022-08-02T15:30:09.158Z,27.54
2022-08-02T15:33:12.787Z,27.77
2022-08-02T15:36:16.945Z,27.69
2022-08-02T15:39:19.831Z,27.54
2022-08-02T15:42:30.234Z,27.80
2022-08-02T15:45:35.359Z,28.27
2022-08-02T15:48:39.454Z,28.79
2022-08-02T15:51:42.008Z,29.29
2022-08-02T15:54:44.972Z,29.29
2022-08-02T15:57:47.684Z,29.93
2022-08-02T16:00:50.790Z,29.68
2022-08-02T16:03:53.858Z,29.39
2022-08-02T16:06:57.534Z,29.75
2022-08-02T16:10:04.944Z,30.08
2022-08-02T16:13:26.032Z,30.02
2022-08-02T16:16:31.959Z,29.83
2022-08-02T16:19:49.130Z,29.35
2022-08-02T16:22:53.518Z,29.23
2022-08-02T16:25:56.179Z,29.52
2022-08-02T16:29:00.632Z,29.61
2022-08-02T16:32:04.312Z,29.53
2022-08-02T16:35:09.189Z,29.55
2022-08-02T16:38:12.140Z,29.65
2022-08-02T16:41:16.372Z,29.75
2022-08-02T16:44:27.611Z,29.39
2022-08-02T16:47:43.466Z,28.83
2022-08-02T16:50:56.229Z,28.74
2022-08-02T16:54:01.138Z,29.39
2022-08-02T16:57:05.230Z,29.91
2022-08-02T17:00:10.361Z,29.98
2022-08-02T17:03:14.311Z,29.96
2022-08-02T17:06:18.346Z,30.20
2022-08-02T17:10:03.410Z,30.22
2022-08-02T17:12:44.525Z,30.08
2022-08-02T17:16:16.499Z,30.20
2022-08-02T17:19:18.071Z,30.54
2022-08-02T17:22:20.873Z,30.47
2022-08-02T17:25:24.772Z,30.63
2022-08-02T17:28:31.430Z,31.08
2022-08-02T17:31:42.908Z,31.35
2022-08-02T17:34:56.364Z,31.93
2022-08-02T17:38:03.113Z,31.98
2022-08-02T17:41:15.283Z,32.21
2022-08-02T17:44:37.215Z,32.52
2022-08-02T17:47:42.008Z,33.05
2022-08-02T17:50:48.851Z,33.62
2022-08-02T17:53:51.694Z,33.95
2022-08-02T17:56:54.944Z,33.85
2022-08-02T18:00:03.595Z,34.20
2022-08-02T18:03:07.898Z,34.71
2022-08-02T18:06:13.328Z,34.71
2022-08-02T18:09:17.677Z,35.05
2022-08-02T18:12:21.014Z,35.39
2022-08-02T18:15:23.798Z,35.95
2022-08-02T18:18:29.682Z,36.19
2022-08-02T18:21:33.106Z,36.53
2022-08-02T18:24:37.584Z,36.81
2022-08-02T18:27:41.944Z,37.73
2022-08-02T18:30:46.101Z,38.02
2022-08-02T18:33:58.636Z,38.07
2022-08-02T18:37:04.801Z,39.04
2022-08-02T18:40:09.985Z,39.57
2022-08-02T18:43:14.391Z,39.71
2022-08-02T18:46:21.095Z,39.75
2022-08-02T18:49:30.094Z,40.17
2022-08-02T18:52:54.240Z,40.42
2022-08-02T18:56:03.231Z,40.93
2022-08-02T18:59:07.754Z,41.20
2022-08-02T19:02:11.473Z,41.33
2022-08-02T19:05:14.552Z,41.88
2022-08-02T19:08:18.620Z,41.74
2022-08-02T19:11:21.609Z,42.11
2022-08-02T19:14:27.728Z,42.13
2022-08-02T19:17:53.872Z,42.82
2022-08-02T19:20:58.237Z,43.37
2022-08-02T19:24:04.836Z,44.24
2022-08-02T19:27:13.814Z,44.95
2022-08-02T19:30:18.948Z,45.11
2022-08-02T19:34:06.711Z,44.59
2022-08-02T19:36:48.800Z,45.31
2022-08-02T19:39:52.397Z,45.83
2022-08-02T19:44:24.725Z,46.08
2022-08-02T19:46:23.118Z,45.90
2022-08-02T19:49:39.921Z,46.80
2022-08-02T19:52:47.417Z,46.60
2022-08-02T19:55:59.802Z,46.87
2022-08-02T19:59:13.390Z,46.97
2022-08-02T20:02:18.410Z,47.75
2022-08-02T20:05:24.024Z,47.79
2022-08-02T20:08:31.627Z,48.02
2022-08-02T20:11:41.605Z,47.55
2022-08-02T20:14:51.301Z,47.81
2022-08-02T20:17:54.650Z,48.28
2022-08-02T20:20:58.669Z,48.48
2022-08-02T20:24:03.477Z,48.69
2022-08-02T20:27:16.322Z,48.63
2022-08-02T20:30:20.255Z,49.38
2022-08-02T20:33:29.359Z,49.84
2022-08-02T20:36:34.788Z,49.78
2022-08-02T20:39:43.114Z,49.51
2022-08-02T20:42:47.962Z,50.06
2022-08-02T20:45:51.241Z,51.49
2022-08-02T20:48:55.245Z,51.34
2022-08-02T20:52:02.179Z,51.45
2022-08-02T20:55:05.642Z,50.77
2022-08-02T20:58:11.829Z,51.08
2022-08-02T21:01:15.003Z,52.04
2022-08-02T21:04:19.240Z,52.79
2022-08-02T21:07:25.603Z,53.36
2022-08-02T21:10:29.677Z,52.74
2022-08-02T21:13:32.842Z,53.01
2022-08-02T21:16:35.977Z,53.08
2022-08-02T21:19:44.339Z,53.15
2022-08-02T21:22:47.067Z,53.20
2022-08-02T21:25:57.406Z,53.69
2022-08-02T21:29:03.465Z,54.22
2022-08-02T21:32:07.384Z,54.67
2022-08-02T21:35:10.869Z,55.12
2022-08-02T21:38:35.159Z,54.34
2022-08-02T21:41:46.210Z,55.22
2022-08-02T21:44:51.493Z,55.49
2022-08-02T21:47:54.043Z,55.31
2022-08-02T21:50:58.614Z,55.00
2022-08-02T21:54:17.407Z,55.31
2022-08-02T21:57:23.219Z,55.85
2022-08-02T22:00:28.791Z,57.11
2022-08-02T22:03:32.640Z,56.83
2022-08-02T22:06:35.745Z,56.83
2022-08-02T22:09:43.340Z,56.41
2022-08-02T22:12:48.281Z,57.95
2022-08-02T22:15:51.386Z,59.01
2022-08-02T22:18:55.088Z,57.58
2022-08-02T22:22:00.600Z,57.65
2022-08-02T22:25:04.207Z,58.78
2022-08-02T22:28:37.714Z,58.73
2022-08-02T22:31:40.831Z,58.44
2022-08-02T22:34:52.100Z,60.17
2022-08-02T22:38:14.569Z,60.96
2022-08-02T22:41:22.701Z,60.86
2022-08-02T22:44:25.319Z,61.25
2022-08-02T22:47:28.286Z,60.85
2022-08-02T22:50:41.406Z,61.22
2022-08-02T22:53:45.559Z,62.95
2022-08-02T22:56:48.206Z,62.18
2022-08-02T22:59:51.584Z,62.27
2022-08-02T23:02:55.558Z,62.72
2022-08-02T23:05:58.629Z,64.75
2022-08-02T23:09:01.297Z,64.65
2022-08-02T23:12:04.795Z,65.63
2022-08-02T23:15:09.217Z,65.21
2022-08-02T23:18:30.857Z,64.11
2022-08-02T23:22:01.391Z,63.69
2022-08-02T23:24:56.661Z,63.56
2022-08-02T23:27:59.347Z,64.13
2022-08-02T23:31:28.864Z,64.61
2022-08-02T23:34:31.484Z,64.24
2022-08-02T23:38:00.276Z,63.85
2022-08-02T23:40:58.099Z,64.01
2022-08-02T23:44:13.493Z,64.32
2022-08-02T23:47:17.459Z,63.70
2022-08-02T23:50:20.688Z,64.03
2022-08-02T23:53:23.309Z,64.29
2022-08-02T23:56:26.306Z,66.11
2022-08-02T23:59:29.942Z,65.48
